CheckWX is a tool to help pilots better visualize weather data.  It is not intended as a substitute for an official pre-flight weather briefing.

16:21:45 UTC

KMKC METAR
Charles B Wheeler Downtown Airport
Kansas City, Missouri, USA
Current

24 mins ago

KMKC 261558Z 12008KT 5SM BR FEW008 BKN013 OVC020 21/19 A2973 RMK AO2 T02110189
Observed
May-26 @ 15:58 UTC
Wind
  • 120° at 8 KTS
Visibility
Flight Rules
MVFR
Conditions
Mist
Cloud Levels
  • Few at 800' AGL
  • Broken at 1,300' AGL
  • Overcast at 2,000' AGL
Temperature
21°C / 70°F
Dewpoint
19°C / 66°F
Humidity
88%
Altimeter
29.73" Hg
Pressure
1006.82 hPa
Previous

58 mins ago

KMKC 261524Z 10005KT 10SM FEW009 BKN014 OVC023 21/19 A2973 RMK AO2 RAB06E18 P0000 T02060189
Observed
May-26 @ 15:24 UTC
Wind
  • 100° at 5 KTS
Visibility
Flight Rules
MVFR
Cloud Levels
  • Few at 900' AGL
  • Broken at 1,400' AGL
  • Overcast at 2,300' AGL
Temperature
21°C / 70°F
Dewpoint
19°C / 66°F
Humidity
88%
Altimeter
29.73" Hg
Pressure
1006.82 hPa
Current Rain
0.01"
Previous

1 hour ago

KMKC 261454Z 11008KT 10SM BKN015 OVC021 21/18 A2973 RMK AO2 RAB1357E18 SLP061 P0000 60000 T02110183 56006
Observed
May-26 @ 14:54 UTC
Wind
  • 110° at 8 KTS
Visibility
Flight Rules
MVFR
Cloud Levels
  • Broken at 1,500' AGL
  • Overcast at 2,100' AGL
Temperature
21°C / 70°F
Dewpoint
18°C / 64°F
Humidity
83%
Altimeter
29.73" Hg
Pressure
1006.82 hPa
Current Rain
0.01"